createdAt,value
2023-05-22T00:00:43.853Z,18.62
2023-05-22T00:01:34.635Z,18.62
2023-05-22T00:02:25.447Z,18.61
2023-05-22T00:03:16.243Z,18.59
2023-05-22T00:04:07.033Z,18.59
2023-05-22T00:04:57.899Z,18.62
2023-05-22T00:05:48.636Z,18.61
2023-05-22T00:06:39.420Z,18.62
2023-05-22T00:07:30.217Z,18.62
2023-05-22T00:08:21.054Z,18.59
2023-05-22T00:09:11.877Z,18.61
2023-05-22T00:10:02.652Z,18.61
2023-05-22T00:10:53.434Z,18.57
2023-05-22T00:11:44.232Z,18.59
2023-05-22T00:12:35.029Z,18.58
2023-05-22T00:13:25.849Z,18.58
2023-05-22T00:14:16.586Z,18.58
2023-05-22T00:15:07.349Z,18.57
2023-05-22T00:15:58.112Z,18.57
2023-05-22T00:16:49.180Z,18.55
2023-05-22T00:17:39.939Z,18.55
2023-05-22T00:18:30.689Z,18.55
2023-05-22T00:19:21.503Z,18.55
2023-05-22T00:20:12.235Z,18.57
2023-05-22T00:21:03.026Z,18.54
2023-05-22T00:21:53.791Z,18.55
2023-05-22T00:22:44.584Z,18.54
2023-05-22T00:23:35.392Z,18.52
2023-05-22T00:24:26.180Z,18.52
2023-05-22T00:25:16.960Z,18.49
2023-05-22T00:26:07.754Z,18.50
2023-05-22T00:26:58.534Z,18.52
2023-05-22T00:27:49.356Z,18.54
2023-05-22T00:28:40.093Z,18.50
2023-05-22T00:29:30.911Z,18.52
2023-05-22T00:30:21.660Z,18.50
2023-05-22T00:31:12.445Z,18.50
2023-05-22T00:32:03.226Z,18.50
2023-05-22T00:32:54.103Z,18.50
2023-05-22T00:33:44.865Z,18.49
2023-05-22T00:34:35.685Z,18.49
2023-05-22T00:35:26.456Z,18.50
2023-05-22T00:36:17.245Z,18.50
2023-05-22T00:37:08.031Z,18.49
2023-05-22T00:37:58.816Z,18.46
2023-05-22T00:38:49.595Z,18.46
2023-05-22T00:39:40.375Z,18.46
2023-05-22T00:40:31.162Z,18.47
2023-05-22T00:41:21.947Z,18.44
2023-05-22T00:42:12.735Z,18.46
2023-05-22T00:43:03.510Z,18.44
2023-05-22T00:43:54.310Z,18.43
2023-05-22T00:44:45.186Z,18.43
2023-05-22T00:45:35.916Z,18.40
2023-05-22T00:46:26.704Z,18.40
2023-05-22T00:47:17.463Z,18.40
2023-05-22T00:48:08.325Z,18.40
2023-05-22T00:48:59.084Z,18.39
2023-05-22T00:49:49.882Z,18.37
2023-05-22T00:50:40.948Z,18.39
2023-05-22T00:51:31.785Z,18.36
2023-05-22T00:52:22.572Z,18.36
2023-05-22T00:53:13.362Z,18.36
2023-05-22T00:54:04.159Z,18.37
2023-05-22T00:54:54.920Z,18.34
2023-05-22T00:55:45.704Z,18.37
2023-05-22T00:56:36.479Z,18.34
2023-05-22T00:57:27.279Z,18.34
2023-05-22T00:58:18.048Z,18.34
2023-05-22T00:59:08.831Z,18.31
2023-05-22T00:59:59.648Z,18.29
2023-05-22T01:00:50.420Z,18.28
2023-05-22T01:01:41.253Z,18.29
2023-05-22T01:02:32.103Z,18.29
2023-05-22T01:03:22.946Z,18.27
2023-05-22T01:04:13.792Z,18.28
2023-05-22T01:05:04.522Z,18.28
2023-05-22T01:05:55.295Z,18.24
2023-05-22T01:06:46.060Z,18.25
2023-05-22T01:07:36.833Z,18.24
2023-05-22T01:08:27.617Z,18.25
2023-05-22T01:09:18.403Z,18.25
2023-05-22T01:10:09.189Z,18.22
2023-05-22T01:10:59.978Z,18.22
2023-05-22T01:11:50.776Z,18.22
2023-05-22T01:12:41.558Z,18.22
2023-05-22T01:13:32.353Z,18.22
2023-05-22T01:14:23.142Z,18.21
2023-05-22T01:15:13.949Z,18.21
2023-05-22T01:16:04.739Z,18.18
2023-05-22T01:16:55.532Z,18.18
2023-05-22T01:17:46.401Z,18.18
2023-05-22T01:18:37.147Z,18.15
2023-05-22T01:19:28.058Z,18.13
2023-05-22T01:20:18.829Z,18.13
2023-05-22T01:21:09.604Z,18.12
2023-05-22T01:22:00.374Z,18.13
2023-05-22T01:22:51.165Z,18.10
2023-05-22T01:23:41.945Z,18.09
2023-05-22T01:24:32.737Z,18.09
2023-05-22T01:25:23.519Z,18.07
2023-05-22T01:26:14.289Z,18.06
2023-05-22T01:27:05.065Z,18.07
2023-05-22T01:27:55.866Z,18.09
2023-05-22T01:28:46.596Z,18.06
2023-05-22T01:29:37.377Z,18.06
2023-05-22T01:30:28.190Z,18.03
2023-05-22T01:31:18.895Z,18.02
2023-05-22T01:32:09.676Z,18.03
2023-05-22T01:33:00.492Z,18.02
2023-05-22T01:33:51.529Z,18.00
2023-05-22T01:34:42.329Z,18.03
2023-05-22T01:35:33.123Z,18.00
2023-05-22T01:36:23.921Z,17.97
2023-05-22T01:37:14.732Z,17.95
2023-05-22T01:38:05.503Z,17.97
2023-05-22T01:38:56.289Z,17.95
2023-05-22T01:39:47.077Z,17.94
2023-05-22T01:40:38.090Z,17.92
2023-05-22T01:41:28.976Z,17.94
2023-05-22T01:42:19.762Z,17.91
2023-05-22T01:43:10.548Z,17.89
2023-05-22T01:44:01.345Z,17.88
2023-05-22T01:44:52.100Z,17.88
2023-05-22T01:45:42.940Z,17.89
2023-05-22T01:46:33.690Z,17.89
2023-05-22T01:47:24.482Z,17.88
2023-05-22T01:48:15.247Z,17.88
2023-05-22T01:49:06.029Z,17.87
2023-05-22T01:49:56.802Z,17.85
2023-05-22T01:50:47.579Z,17.84
2023-05-22T01:51:38.357Z,17.85
2023-05-22T01:52:29.168Z,17.82
2023-05-22T01:53:19.953Z,17.82
2023-05-22T01:54:10.735Z,17.81
2023-05-22T01:55:01.521Z,17.81
2023-05-22T01:55:52.305Z,17.79
2023-05-22T01:56:43.112Z,17.78
2023-05-22T01:57:33.890Z,17.78
2023-05-22T01:58:24.651Z,17.78
2023-05-22T01:59:15.349Z,17.78
2023-05-22T02:00:06.114Z,17.78
2023-05-22T02:00:56.968Z,17.73
2023-05-22T02:01:47.873Z,17.73
2023-05-22T02:02:38.547Z,17.74
2023-05-22T02:03:29.198Z,17.71
2023-05-22T02:04:20.088Z,17.70
2023-05-22T02:05:10.940Z,17.67
2023-05-22T02:06:01.678Z,17.67
2023-05-22T02:06:52.811Z,17.67
2023-05-22T02:07:44.011Z,17.67
2023-05-22T02:08:35.038Z,17.66
2023-05-22T02:09:26.060Z,17.63
2023-05-22T02:10:17.156Z,17.63
2023-05-22T02:11:08.195Z,17.62
2023-05-22T02:11:59.219Z,17.57
2023-05-22T02:12:50.145Z,17.62
2023-05-22T02:13:41.281Z,17.59
2023-05-22T02:14:31.946Z,17.57
2023-05-22T02:15:22.726Z,17.54
2023-05-22T02:16:13.543Z,17.55
2023-05-22T02:17:04.279Z,17.55
2023-05-22T02:17:55.078Z,17.54
2023-05-22T02:18:45.855Z,17.53
2023-05-22T02:19:36.691Z,17.53
2023-05-22T02:20:27.407Z,17.51
2023-05-22T02:21:18.168Z,17.51
2023-05-22T02:22:08.937Z,17.51
2023-05-22T02:22:59.693Z,17.51
2023-05-22T02:23:50.461Z,17.50
2023-05-22T02:24:41.222Z,17.47
2023-05-22T02:25:31.980Z,17.47
2023-05-22T02:26:22.742Z,17.46
2023-05-22T02:27:13.723Z,17.46
2023-05-22T02:28:04.421Z,17.43
2023-05-22T02:28:55.214Z,17.43
2023-05-22T02:29:45.975Z,17.40
2023-05-22T02:30:37.047Z,17.40
2023-05-22T02:31:27.960Z,17.40
2023-05-22T02:32:18.711Z,17.40
2023-05-22T02:33:09.902Z,17.38
2023-05-22T02:34:00.725Z,17.36
2023-05-22T02:34:54.081Z,17.38
2023-05-22T02:35:42.553Z,17.38
2023-05-22T02:36:33.418Z,17.33
2023-05-22T02:37:24.278Z,17.33
2023-05-22T02:38:15.139Z,17.32
2023-05-22T02:39:05.996Z,17.32
2023-05-22T02:39:56.871Z,17.32
2023-05-22T02:40:47.865Z,17.29
2023-05-22T02:41:38.661Z,17.28
2023-05-22T02:42:29.461Z,17.28
2023-05-22T02:43:20.393Z,17.30
2023-05-22T02:44:11.260Z,17.28
2023-05-22T02:45:02.128Z,17.26
2023-05-22T02:45:52.975Z,17.25
2023-05-22T02:46:43.928Z,17.26
2023-05-22T02:47:34.782Z,17.26
2023-05-22T02:48:25.628Z,17.26
2023-05-22T02:49:16.818Z,17.25
2023-05-22T02:50:07.501Z,17.23
2023-05-22T02:50:58.359Z,17.25
2023-05-22T02:51:49.222Z,17.23
2023-05-22T02:52:40.129Z,17.23
2023-05-22T02:53:30.999Z,17.23
2023-05-22T02:54:21.865Z,17.23
2023-05-22T02:55:12.720Z,17.23
2023-05-22T02:56:03.592Z,17.23
2023-05-22T02:56:54.475Z,17.22
2023-05-22T02:57:45.333Z,17.22
2023-05-22T02:58:36.198Z,17.22
2023-05-22T02:59:27.166Z,17.18
2023-05-22T03:00:18.053Z,17.20
2023-05-22T03:01:08.964Z,17.17
2023-05-22T03:01:59.944Z,17.17
2023-05-22T03:02:50.858Z,17.15
2023-05-22T03:03:41.892Z,17.14
2023-05-22T03:04:32.798Z,17.13
2023-05-22T03:05:23.685Z,17.13
2023-05-22T03:06:14.564Z,17.11
2023-05-22T03:07:05.451Z,17.11
2023-05-22T03:07:56.382Z,17.11
2023-05-22T03:08:47.262Z,17.11
2023-05-22T03:09:38.143Z,17.11
2023-05-22T03:10:29.028Z,17.08
2023-05-22T03:11:19.902Z,17.10
2023-05-22T03:12:10.776Z,17.10
2023-05-22T03:13:01.683Z,17.08
2023-05-22T03:13:52.554Z,17.11
2023-05-22T03:14:43.437Z,17.08
2023-05-22T03:15:34.312Z,17.08
2023-05-22T03:16:25.227Z,17.08
2023-05-22T03:17:16.123Z,17.07
2023-05-22T03:18:06.980Z,17.06
2023-05-22T03:18:57.872Z,17.06
2023-05-22T03:19:48.758Z,17.04
2023-05-22T03:20:39.904Z,17.04
2023-05-22T03:21:30.291Z,17.06
2023-05-22T03:22:21.175Z,17.03
2023-05-22T03:23:12.043Z,17.03
2023-05-22T03:24:02.930Z,17.04
2023-05-22T03:24:53.821Z,17.04
2023-05-22T03:25:44.704Z,17.04
2023-05-22T03:26:35.581Z,17.04
2023-05-22T03:27:26.482Z,17.03
2023-05-22T03:28:17.370Z,17.04
2023-05-22T03:29:08.388Z,17.04
2023-05-22T03:29:59.274Z,17.04
2023-05-22T03:30:50.174Z,17.03
2023-05-22T03:31:41.040Z,17.04
2023-05-22T03:32:31.957Z,17.00
2023-05-22T03:33:22.827Z,17.04
2023-05-22T03:34:13.695Z,17.03
2023-05-22T03:35:04.584Z,17.00
2023-05-22T03:35:55.441Z,17.00
2023-05-22T03:36:46.338Z,17.03
2023-05-22T03:37:37.210Z,17.00
2023-05-22T03:38:28.069Z,17.00
2023-05-22T03:39:18.948Z,17.00
2023-05-22T03:40:09.817Z,17.03
2023-05-22T03:41:00.697Z,17.00
2023-05-22T03:41:51.576Z,17.03
2023-05-22T03:42:42.462Z,17.03
2023-05-22T03:43:33.361Z,17.03
2023-05-22T03:44:24.254Z,17.03
2023-05-22T03:45:15.142Z,17.00
2023-05-22T03:46:06.078Z,17.03
2023-05-22T03:46:56.963Z,17.03
2023-05-22T03:47:47.929Z,17.03
2023-05-22T03:48:38.774Z,17.03
2023-05-22T03:49:29.668Z,17.00
2023-05-22T03:50:20.569Z,17.04
2023-05-22T03:51:11.464Z,17.03
2023-05-22T03:52:02.355Z,17.03
2023-05-22T03:52:53.257Z,17.03
2023-05-22T03:53:44.169Z,17.04
2023-05-22T03:54:35.078Z,17.06
2023-05-22T03:55:25.996Z,17.06
2023-05-22T03:56:16.909Z,17.04
2023-05-22T03:57:07.537Z,17.06
2023-05-22T03:57:58.450Z,17.06
2023-05-22T03:58:49.351Z,17.07
2023-05-22T03:59:40.258Z,17.06
2023-05-22T04:00:31.184Z,17.08
2023-05-22T04:01:22.092Z,17.08
2023-05-22T04:02:13.159Z,17.08
2023-05-22T04:03:04.244Z,17.08
2023-05-22T04:03:55.187Z,17.10
2023-05-22T04:04:46.153Z,17.08
2023-05-22T04:05:37.107Z,17.10
2023-05-22T04:06:28.006Z,17.11
2023-05-22T04:07:18.925Z,17.10
2023-05-22T04:08:09.832Z,17.11
2023-05-22T04:09:00.756Z,17.13
2023-05-22T04:09:51.664Z,17.11
2023-05-22T04:10:42.592Z,17.11
2023-05-22T04:11:33.489Z,17.11
2023-05-22T04:12:24.401Z,17.11
2023-05-22T04:13:15.293Z,17.13
2023-05-22T04:14:06.193Z,17.14
2023-05-22T04:14:57.107Z,17.14
2023-05-22T04:15:48.034Z,17.14
2023-05-22T04:16:38.906Z,17.15
2023-05-22T04:17:29.827Z,17.15
2023-05-22T04:18:20.762Z,17.18
2023-05-22T04:19:11.686Z,17.18
2023-05-22T04:20:02.589Z,17.20
2023-05-22T04:20:53.483Z,17.22
2023-05-22T04:21:44.379Z,17.20
2023-05-22T04:22:35.289Z,17.22
2023-05-22T04:23:26.225Z,17.22
2023-05-22T04:24:17.150Z,17.25
2023-05-22T04:25:08.064Z,17.23
2023-05-22T04:25:58.948Z,17.25
2023-05-22T04:26:49.859Z,17.26
2023-05-22T04:27:40.781Z,17.28
2023-05-22T04:28:31.684Z,17.29
2023-05-22T04:29:22.597Z,17.30
2023-05-22T04:30:13.499Z,17.30
2023-05-22T04:31:04.451Z,17.32
2023-05-22T04:31:55.310Z,17.33
2023-05-22T04:32:46.224Z,17.33
2023-05-22T04:33:37.163Z,17.32
2023-05-22T04:34:28.036Z,17.33
2023-05-22T04:35:18.948Z,17.35
2023-05-22T04:36:12.214Z,17.35
2023-05-22T04:37:00.924Z,17.35
2023-05-22T04:37:51.839Z,17.36
2023-05-22T04:38:42.757Z,17.38
2023-05-22T04:39:33.666Z,17.38
2023-05-22T04:40:24.582Z,17.38
2023-05-22T04:41:15.482Z,17.40
2023-05-22T04:42:06.390Z,17.41
2023-05-22T04:42:57.291Z,17.41
2023-05-22T04:43:48.212Z,17.38
2023-05-22T04:44:39.127Z,17.40
2023-05-22T04:45:30.030Z,17.41
2023-05-22T04:46:20.999Z,17.40
2023-05-22T04:47:11.916Z,17.41
2023-05-22T04:48:02.984Z,17.40
2023-05-22T04:48:53.993Z,17.43
2023-05-22T04:49:44.840Z,17.43
2023-05-22T04:50:35.735Z,17.43
2023-05-22T04:51:26.652Z,17.44
2023-05-22T04:52:17.548Z,17.46
2023-05-22T04:53:08.475Z,17.46
2023-05-22T04:53:59.371Z,17.48
2023-05-22T04:54:50.266Z,17.47
2023-05-22T04:55:41.183Z,17.48
2023-05-22T04:56:36.897Z,17.53
2023-05-22T04:57:24.005Z,17.53
2023-05-22T04:58:13.687Z,17.54
2023-05-22T04:59:04.639Z,17.57
2023-05-22T04:59:55.558Z,17.57
2023-05-22T05:00:46.502Z,17.59
2023-05-22T05:01:37.457Z,17.63
2023-05-22T05:02:28.440Z,17.64
2023-05-22T05:03:19.387Z,17.66
2023-05-22T05:04:10.356Z,17.69
2023-05-22T05:05:01.248Z,17.67
2023-05-22T05:05:52.183Z,17.70
2023-05-22T05:06:43.121Z,17.73
2023-05-22T05:07:34.020Z,17.73
2023-05-22T05:08:24.903Z,17.74
2023-05-22T05:09:15.832Z,17.78
2023-05-22T05:10:06.791Z,17.79
2023-05-22T05:10:57.648Z,17.79
2023-05-22T05:11:48.568Z,17.82
2023-05-22T05:12:39.476Z,17.85
2023-05-22T05:13:30.374Z,17.85
2023-05-22T05:14:21.303Z,17.88
2023-05-22T05:15:12.190Z,17.92
2023-05-22T05:16:03.134Z,17.91
2023-05-22T05:16:54.066Z,17.95
2023-05-22T05:17:44.969Z,17.97
2023-05-22T05:18:35.863Z,18.00
2023-05-22T05:19:26.948Z,18.02
2023-05-22T05:20:17.852Z,18.03
2023-05-22T05:21:08.743Z,18.06
2023-05-22T05:21:59.649Z,18.07
2023-05-22T05:22:50.559Z,18.10
2023-05-22T05:23:41.489Z,18.10
2023-05-22T05:24:32.386Z,18.12
2023-05-22T05:25:23.311Z,18.13
2023-05-22T05:26:14.217Z,18.18
2023-05-22T05:27:05.139Z,18.18
2023-05-22T05:27:56.051Z,18.19
2023-05-22T05:28:46.960Z,18.22
2023-05-22T05:29:37.866Z,18.25
2023-05-22T05:30:28.766Z,18.27
2023-05-22T05:31:19.677Z,18.31
2023-05-22T05:32:10.681Z,18.33
2023-05-22T05:33:01.712Z,18.34
2023-05-22T05:33:52.571Z,18.37
2023-05-22T05:34:43.533Z,18.39
2023-05-22T05:35:34.412Z,18.40
2023-05-22T05:36:25.348Z,18.43
2023-05-22T05:37:16.253Z,18.43
2023-05-22T05:38:07.189Z,18.47
2023-05-22T05:38:58.073Z,18.50
2023-05-22T05:39:48.989Z,18.55
2023-05-22T05:40:40.135Z,18.54
2023-05-22T05:41:30.608Z,18.54
2023-05-22T05:42:21.518Z,18.58
2023-05-22T05:43:12.420Z,18.62
2023-05-22T05:44:03.354Z,18.62
2023-05-22T05:44:54.237Z,18.67
2023-05-22T05:45:45.201Z,18.68
2023-05-22T05:46:36.248Z,18.72
2023-05-22T05:47:27.196Z,18.73
2023-05-22T05:48:18.080Z,18.76
2023-05-22T05:49:08.993Z,18.79
2023-05-22T05:49:59.911Z,18.80
2023-05-22T05:50:50.791Z,18.84
2023-05-22T05:51:41.695Z,18.87
2023-05-22T05:52:32.706Z,18.87
2023-05-22T05:53:23.604Z,18.92
2023-05-22T05:54:14.534Z,18.91
2023-05-22T05:55:05.448Z,18.92
2023-05-22T05:55:56.362Z,18.98
2023-05-22T05:56:47.276Z,18.99
2023-05-22T05:57:38.183Z,19.02
2023-05-22T05:58:29.097Z,19.10
2023-05-22T05:59:20.025Z,19.11
2023-05-22T06:00:10.931Z,19.13
2023-05-22T06:01:01.858Z,19.14
2023-05-22T06:01:52.754Z,19.17
2023-05-22T06:02:43.804Z,19.17
2023-05-22T06:03:34.818Z,19.23
2023-05-22T06:04:25.765Z,19.24
2023-05-22T06:05:16.686Z,19.28
2023-05-22T06:06:07.548Z,19.29
2023-05-22T06:06:58.445Z,19.32
2023-05-22T06:07:49.354Z,19.32
2023-05-22T06:08:40.279Z,19.33
2023-05-22T06:09:31.164Z,19.38
2023-05-22T06:10:22.064Z,19.39
2023-05-22T06:11:12.970Z,19.42
2023-05-22T06:12:03.895Z,19.43
2023-05-22T06:12:54.804Z,19.46
2023-05-22T06:13:45.789Z,19.48
2023-05-22T06:14:36.663Z,19.54
2023-05-22T06:15:27.580Z,19.54
2023-05-22T06:16:18.618Z,19.54
2023-05-22T06:17:09.460Z,19.58
2023-05-22T06:18:00.397Z,19.61
2023-05-22T06:18:51.321Z,19.63
2023-05-22T06:19:42.216Z,19.66
2023-05-22T06:20:33.135Z,19.72
2023-05-22T06:21:24.012Z,19.73
2023-05-22T06:22:14.913Z,19.78
2023-05-22T06:23:05.826Z,19.83
2023-05-22T06:23:56.733Z,19.87
2023-05-22T06:24:47.657Z,19.86
2023-05-22T06:25:38.564Z,19.91
2023-05-22T06:26:29.440Z,19.93
2023-05-22T06:27:20.339Z,19.97
2023-05-22T06:28:11.253Z,20.05
2023-05-22T06:29:02.171Z,20.05
2023-05-22T06:29:53.072Z,20.09
2023-05-22T06:30:44.026Z,20.10
2023-05-22T06:31:34.926Z,20.13
2023-05-22T06:32:25.920Z,20.16
2023-05-22T06:33:16.894Z,20.18
2023-05-22T06:34:07.932Z,20.21
2023-05-22T06:34:58.935Z,20.27
2023-05-22T06:35:49.895Z,20.27
2023-05-22T06:36:40.723Z,20.30
2023-05-22T06:37:31.625Z,20.35
2023-05-22T06:38:22.541Z,20.35
2023-05-22T06:39:13.525Z,20.38
2023-05-22T06:40:04.389Z,20.42
2023-05-22T06:40:55.305Z,20.43
2023-05-22T06:41:46.230Z,20.49
2023-05-22T06:42:37.141Z,20.50
2023-05-22T06:43:28.033Z,20.51
2023-05-22T06:44:18.975Z,20.54
2023-05-22T06:45:09.834Z,20.58
2023-05-22T06:46:00.760Z,20.62
2023-05-22T06:46:51.650Z,20.64
2023-05-22T06:47:42.603Z,20.66
2023-05-22T06:48:33.452Z,20.69
2023-05-22T06:49:24.383Z,20.71
2023-05-22T06:50:15.297Z,20.76
2023-05-22T06:51:06.231Z,20.77
2023-05-22T06:51:57.128Z,20.79
2023-05-22T06:52:48.018Z,20.86
2023-05-22T06:53:38.929Z,20.89
2023-05-22T06:54:29.841Z,20.89
2023-05-22T06:55:20.737Z,20.95
2023-05-22T06:56:11.654Z,20.95
2023-05-22T06:57:02.559Z,20.98
2023-05-22T06:57:53.476Z,21.02
2023-05-22T06:58:44.362Z,21.05
2023-05-22T06:59:35.266Z,21.08
2023-05-22T07:00:26.172Z,21.11
2023-05-22T07:01:17.097Z,21.14
2023-05-22T07:02:07.991Z,21.16
2023-05-22T07:02:58.924Z,21.20
2023-05-22T07:03:49.817Z,21.21
2023-05-22T07:04:40.724Z,21.23
2023-05-22T07:05:31.717Z,21.24
2023-05-22T07:06:22.607Z,21.27
2023-05-22T07:07:13.519Z,21.32
2023-05-22T07:08:04.419Z,21.32
2023-05-22T07:08:55.352Z,21.38
2023-05-22T07:09:46.280Z,21.38
2023-05-22T07:10:37.504Z,21.39
2023-05-22T07:11:27.968Z,21.45
2023-05-22T07:12:18.865Z,21.48
2023-05-22T07:13:10.586Z,21.50
2023-05-22T07:14:00.864Z,21.54
2023-05-22T07:14:51.749Z,21.57
2023-05-22T07:15:44.006Z,21.57
2023-05-22T07:16:33.608Z,21.60
2023-05-22T07:17:24.569Z,21.63
2023-05-22T07:18:15.441Z,21.64
2023-05-22T07:19:06.384Z,21.71
2023-05-22T07:19:57.263Z,21.72
2023-05-22T07:20:48.169Z,21.75
2023-05-22T07:21:39.124Z,21.76
2023-05-22T07:22:30.014Z,21.79
2023-05-22T07:23:20.937Z,21.82
2023-05-22T07:24:11.845Z,21.81
2023-05-22T07:25:02.748Z,21.88
2023-05-22T07:25:53.664Z,21.90
2023-05-22T07:26:44.588Z,21.91
2023-05-22T07:27:35.529Z,21.92
2023-05-22T07:28:26.442Z,21.97
2023-05-22T07:29:17.367Z,21.98
2023-05-22T07:30:08.300Z,22.01
2023-05-22T07:30:59.213Z,22.07
2023-05-22T07:31:50.238Z,22.12
2023-05-22T07:32:41.239Z,22.10
2023-05-22T07:33:32.201Z,22.14
2023-05-22T07:34:23.122Z,22.16
2023-05-22T07:35:14.058Z,22.19
2023-05-22T07:36:04.972Z,22.20
2023-05-22T07:36:56.023Z,22.22
2023-05-22T07:37:46.868Z,22.25
2023-05-22T07:38:37.792Z,22.29
2023-05-22T07:39:28.726Z,22.28
2023-05-22T07:40:19.656Z,22.31
2023-05-22T07:41:10.583Z,22.34
2023-05-22T07:42:01.837Z,22.34
2023-05-22T07:42:52.418Z,22.39
2023-05-22T07:43:43.333Z,22.38
2023-05-22T07:44:34.267Z,22.37
2023-05-22T07:45:25.190Z,22.39
2023-05-22T07:46:16.171Z,22.41
2023-05-22T07:47:07.122Z,22.44
2023-05-22T07:47:58.071Z,22.43
2023-05-22T07:48:48.997Z,22.44
2023-05-22T07:49:39.897Z,22.50
2023-05-22T07:50:30.911Z,22.47
2023-05-22T07:51:21.821Z,22.49
2023-05-22T07:52:13.035Z,22.50
2023-05-22T07:53:03.881Z,22.49
2023-05-22T07:53:54.806Z,22.52
2023-05-22T07:54:45.936Z,22.52
2023-05-22T07:55:36.968Z,22.53
2023-05-22T07:56:27.893Z,22.56
2023-05-22T07:57:18.828Z,22.59
2023-05-22T07:58:09.744Z,22.59
2023-05-22T07:59:00.665Z,22.59
2023-05-22T07:59:51.558Z,22.64
2023-05-22T08:00:42.488Z,22.62
2023-05-22T08:01:33.387Z,22.62
2023-05-22T08:02:24.416Z,22.67
2023-05-22T08:03:15.442Z,22.67
2023-05-22T08:04:06.437Z,22.68
2023-05-22T08:04:57.032Z,22.68
2023-05-22T08:05:48.172Z,22.69
2023-05-22T08:06:38.644Z,22.74
2023-05-22T08:07:29.698Z,22.75
2023-05-22T08:08:20.646Z,22.74
2023-05-22T08:09:11.584Z,22.78
2023-05-22T08:10:02.539Z,22.82
2023-05-22T08:11:04.151Z,22.84
2023-05-22T08:11:45.382Z,22.87
2023-05-22T08:12:35.084Z,22.92
2023-05-22T08:13:26.001Z,22.93
2023-05-22T08:14:16.936Z,23.02
2023-05-22T08:15:07.861Z,23.07
2023-05-22T08:16:00.128Z,23.08
2023-05-22T08:16:49.705Z,23.12
2023-05-22T08:17:40.645Z,23.14
2023-05-22T08:18:31.603Z,23.19
2023-05-22T08:19:22.670Z,23.23
2023-05-22T08:20:13.735Z,23.29
2023-05-22T08:21:04.651Z,23.32
2023-05-22T08:21:55.557Z,23.35
2023-05-22T08:22:46.711Z,23.45
2023-05-22T08:23:37.571Z,23.47
2023-05-22T08:24:28.525Z,23.52
2023-05-22T08:25:19.438Z,23.55
2023-05-22T08:26:10.353Z,23.61
2023-05-22T08:27:01.266Z,23.62
2023-05-22T08:27:52.185Z,23.67
2023-05-22T08:28:43.101Z,23.70
2023-05-22T08:29:34.032Z,23.76
2023-05-22T08:30:25.012Z,23.79
2023-05-22T08:31:15.932Z,23.87
2023-05-22T08:32:06.909Z,23.89
2023-05-22T08:32:57.893Z,23.94
2023-05-22T08:33:48.773Z,23.97
2023-05-22T08:34:39.693Z,24.01
2023-05-22T08:35:30.660Z,24.08
2023-05-22T08:36:21.550Z,24.08
2023-05-22T08:37:12.474Z,24.17
2023-05-22T08:38:03.431Z,24.20
2023-05-22T08:38:54.315Z,24.24
2023-05-22T08:39:45.233Z,24.29
2023-05-22T08:40:36.158Z,24.29
2023-05-22T08:41:27.251Z,24.34
2023-05-22T08:42:18.155Z,24.34
2023-05-22T08:43:09.084Z,24.35
2023-05-22T08:44:00.026Z,24.37
2023-05-22T08:44:50.952Z,24.39
2023-05-22T08:45:41.859Z,24.39
2023-05-22T08:46:32.810Z,24.39
2023-05-22T08:47:23.715Z,24.42
2023-05-22T08:48:14.642Z,24.42
2023-05-22T08:49:05.564Z,24.44
2023-05-22T08:49:56.486Z,24.45
2023-05-22T08:50:47.398Z,24.49
2023-05-22T08:51:38.324Z,24.49
2023-05-22T08:52:29.246Z,24.50
2023-05-22T08:53:20.235Z,24.50
2023-05-22T08:54:11.097Z,24.54
2023-05-22T08:55:02.028Z,24.56
2023-05-22T08:55:52.937Z,24.56
2023-05-22T08:56:55.710Z,24.57
2023-05-22T08:57:35.789Z,24.57
2023-05-22T08:58:25.530Z,24.60
2023-05-22T08:59:16.487Z,24.61
2023-05-22T09:00:07.422Z,24.61
2023-05-22T09:00:58.373Z,24.64
2023-05-22T09:01:49.289Z,24.63
2023-05-22T09:02:40.355Z,24.64
2023-05-22T09:03:31.241Z,24.64
2023-05-22T09:04:22.317Z,24.68
2023-05-22T09:05:13.237Z,24.71
2023-05-22T09:06:04.155Z,24.69
2023-05-22T09:06:55.080Z,24.69
2023-05-22T09:07:45.996Z,24.68
2023-05-22T09:08:36.957Z,24.69
2023-05-22T09:09:27.853Z,24.68
2023-05-22T09:10:18.766Z,24.73
2023-05-22T09:11:09.688Z,24.75
2023-05-22T09:12:00.618Z,24.71
2023-05-22T09:12:51.535Z,24.75
2023-05-22T09:13:42.460Z,24.76
2023-05-22T09:14:33.414Z,24.75
2023-05-22T09:15:24.332Z,24.79
2023-05-22T09:16:15.287Z,24.79
2023-05-22T09:17:06.321Z,24.82
2023-05-22T09:17:57.362Z,24.85
2023-05-22T09:18:48.278Z,24.88
2023-05-22T09:19:39.278Z,24.90
2023-05-22T09:20:30.212Z,24.94
2023-05-22T09:21:29.452Z,24.98
2023-05-22T09:22:13.077Z,25.00
2023-05-22T09:23:02.796Z,25.01
2023-05-22T09:23:53.820Z,25.10
2023-05-22T09:24:44.816Z,25.12
2023-05-22T09:25:35.737Z,25.17
2023-05-22T09:26:26.666Z,25.19
2023-05-22T09:27:17.618Z,25.24
2023-05-22T09:28:08.569Z,25.25
2023-05-22T09:28:59.519Z,25.32
2023-05-22T09:29:50.487Z,25.32
2023-05-22T09:30:41.707Z,25.34
2023-05-22T09:31:32.203Z,25.42
2023-05-22T09:32:23.177Z,25.44
2023-05-22T09:33:14.089Z,25.46
2023-05-22T09:34:05.018Z,25.52
2023-05-22T09:34:55.974Z,25.56
2023-05-22T09:35:46.903Z,25.59
2023-05-22T09:36:37.854Z,25.64
2023-05-22T09:37:28.803Z,25.68
2023-05-22T09:38:19.711Z,25.72
2023-05-22T09:39:10.749Z,25.75
2023-05-22T09:40:01.643Z,25.80
2023-05-22T09:40:52.559Z,25.82
2023-05-22T09:41:43.494Z,25.87
2023-05-22T09:42:34.426Z,25.87
2023-05-22T09:43:25.354Z,25.94
2023-05-22T09:44:16.460Z,26.01
2023-05-22T09:45:07.480Z,26.04
2023-05-22T09:45:58.433Z,26.05
2023-05-22T09:46:49.503Z,26.12
2023-05-22T09:47:40.472Z,26.15
2023-05-22T09:48:31.379Z,26.20
2023-05-22T09:49:22.316Z,26.25
2023-05-22T09:50:13.265Z,26.25
2023-05-22T09:51:04.199Z,26.28
2023-05-22T09:51:55.121Z,26.35
2023-05-22T09:52:46.077Z,26.42
2023-05-22T09:53:37.025Z,26.43
2023-05-22T09:54:27.984Z,26.47
2023-05-22T09:55:18.894Z,26.54
2023-05-22T09:56:09.838Z,26.57
2023-05-22T09:57:00.781Z,26.61
2023-05-22T09:57:51.725Z,26.65
2023-05-22T09:58:42.646Z,26.72
2023-05-22T09:59:33.592Z,26.73
2023-05-22T10:00:24.523Z,26.81
2023-05-22T10:01:15.466Z,26.86
2023-05-22T10:02:06.437Z,26.84
2023-05-22T10:02:57.383Z,26.91
2023-05-22T10:03:49.573Z,26.92
2023-05-22T10:04:39.315Z,26.99
2023-05-22T10:05:30.410Z,26.98
2023-05-22T10:06:21.284Z,27.01
2023-05-22T10:07:12.218Z,27.04
2023-05-22T10:08:03.161Z,27.06
2023-05-22T10:08:54.081Z,27.05
2023-05-22T10:09:45.027Z,27.10
2023-05-22T10:10:35.942Z,27.13
2023-05-22T10:11:26.874Z,27.17
2023-05-22T10:12:17.808Z,27.17
2023-05-22T10:13:08.742Z,27.20
2023-05-22T10:13:59.670Z,27.20
2023-05-22T10:14:50.623Z,27.24
2023-05-22T10:15:41.555Z,27.28
2023-05-22T10:16:32.577Z,27.28
2023-05-22T10:17:23.479Z,27.28
2023-05-22T10:18:14.397Z,27.29
2023-05-22T10:19:05.385Z,27.32
2023-05-22T10:19:56.295Z,27.35
2023-05-22T10:20:47.299Z,27.36
2023-05-22T10:21:38.168Z,27.39
2023-05-22T10:22:29.104Z,27.41
2023-05-22T10:23:20.039Z,27.42
2023-05-22T10:24:10.987Z,27.47
2023-05-22T10:25:02.029Z,27.51
2023-05-22T10:25:52.900Z,27.54
2023-05-22T10:26:43.828Z,27.57
2023-05-22T10:27:34.752Z,27.59
2023-05-22T10:28:25.689Z,27.64
2023-05-22T10:29:16.622Z,27.69
2023-05-22T10:30:07.571Z,27.73
2023-05-22T10:30:58.517Z,27.73
2023-05-22T10:31:49.455Z,27.80
2023-05-22T10:32:40.417Z,27.84
2023-05-22T10:33:31.382Z,27.89
2023-05-22T10:34:22.282Z,27.94
2023-05-22T10:35:13.225Z,27.98
2023-05-22T10:36:04.179Z,27.99
2023-05-22T10:37:00.390Z,28.01
2023-05-22T10:37:47.024Z,28.06
2023-05-22T10:38:36.750Z,28.11
2023-05-22T10:39:27.689Z,28.14
2023-05-22T10:40:18.755Z,28.16
2023-05-22T10:41:09.631Z,28.21
2023-05-22T10:42:00.565Z,28.23
2023-05-22T10:42:51.493Z,28.22
2023-05-22T10:43:42.425Z,28.29
2023-05-22T10:44:33.360Z,28.31
2023-05-22T10:45:24.311Z,28.33
2023-05-22T10:46:15.275Z,28.38
2023-05-22T10:47:06.232Z,28.41
2023-05-22T10:47:57.193Z,28.46
2023-05-22T10:48:48.116Z,28.50
2023-05-22T10:49:39.046Z,28.50
2023-05-22T10:50:29.998Z,28.54
2023-05-22T10:51:21.055Z,28.59
2023-05-22T10:52:11.976Z,28.62
2023-05-22T10:53:02.927Z,28.65
2023-05-22T10:53:53.821Z,28.70
2023-05-22T10:54:44.770Z,28.72
2023-05-22T10:55:35.843Z,28.77